Rechercher aéroport 
image banner adimage banner adimage banner ad
image banner ad

CL65 - H B P D

Situé à Huntington Beach, United States

ICAO - CL65, IATA -

Données fournies par Airmate  

Information générale

Coordonnées: N33°41'43" W118°0'6"
Élévation : 56 feet MSL.
Variation magnétique : 14° East
Voir autres Aéroports à California

Données opérationnelles

Special qualification required
Heure actuelle UTC:
Heure actuelle locale:
Météo à : KSLI - Los Alamitos Aaf ( 11 km )
METAR: KSLI 251556Z 12003KT 10SM OVC015 21/18 A2999 RMK AO2A SLP159 T02110179
TAF: TAF KSLI 251300Z 2513/2619 21006KT 9999 SCT050 BKN090 QNH2998INS TEMPO 2600/2602 20006KT 9000 SHRA BKN080 BECMG 2602/2603 VRB06KT 9999 NSW BKN070 OVC100 QNH3000INS TEMPO 2609/2614 17006KT 8000 SHRA VCTS BKN045CB OVC100 BECMG 2614/2615 18006KT 9999 NSW SCT080 BKN100 QNH3002INS TX31/2521Z TN20/2513Z
Voir NOTAMs / SUP AIP / TFR affectant cet aéroport [VIEW]
Fréquences de communication: [VIEW]

Pistes:

Coordonnées de l'aéroport

Adresse: Huntington Beach United States

Vue satellite de CL65